Montour, Pennsylvania
Current Conditions -  °F | °C
As of 6:51 PM on Saturday 25 Oct 2014 (Local Time) from KPIT Reporting Station
Scattered Clouds Scattered Clouds  
Wind Chill: 63°   Ceiling: Unl
Heat Index: 63°   Visibility: 10mi
Dew Point: 52°   Wind: 12mph
Humidity: 67%   Direction: 240°WSW
Pressure: 29.76"   Gusts: NA
Location:  40.4441°N, 80.1431°W
Report Text: KPIT 252251Z 24010KT 10SM SCT043 SCT250 17/11 A2976 RMK AO2 SLP083 T01720111
Loading
Personal Weather Stations






























Interactive Weather Map
Tropical Storm Tracking
New forecast layout! Learn more

10-Day Weather Forecast

Advertisements
Track Severe Weather on mobile